Time;durP1;ratioP1;P1;durP2;ratioP2;P2;SDS_P1;SDS_P2;PMS_P1;PMS_P2;Temp;Humidity;BMP_temperature;BMP_pressure;BME280_temperature;BME280_humidity;BME280_pressure;Samples;Min_cycle;Max_cycle;Signal;HPM_P1;HPM_P2
2023/12/24 00:00:35;;;;;;;;;;;;;;;13.28;91.72;100457.88;7288396;19;21942;-68
2023/12/24 00:03:02;;;;;;;;;;;;;;;13.28;92.27;100463.16;7294130;19;20083;-69
2023/12/24 00:05:28;;;;;;;;;;;;;;;13.31;93.46;100468.06;7315110;19;19915;-68
2023/12/24 00:07:55;;;;;;;;;;;;;;;13.33;94.50;100455.50;7313794;19;19918;-69
2023/12/24 00:10:22;;;;;;;;;;;;;;;13.33;94.72;100454.69;7291455;19;20231;-67
2023/12/24 00:12:49;;;;;;;;;;;;;;;13.32;94.41;100440.66;7295970;19;19926;-69
2023/12/24 00:15:16;;;;;;;;;;;;;;;13.28;94.70;100449.94;7285673;19;19957;-70
2023/12/24 00:17:43;;;;;;;;;;;;;;;13.26;95.60;100439.53;7300831;19;20683;-68
2023/12/24 00:20:10;;;;;;;;;;;;;;;13.24;95.65;100446.03;7305796;19;20292;-67
2023/12/24 00:22:37;;;;;;;;;;;;;;;13.20;96.08;100435.00;7291091;19;20725;-68
2023/12/24 00:25:04;;;;;;;;;;;;;;;13.19;96.67;100437.81;7297217;19;19947;-68
2023/12/24 00:27:31;;;;;;;;;;;;;;;13.19;96.74;100437.81;7293717;19;19928;-68
2023/12/24 00:29:58;;;;;;;;;;;;;;;13.19;96.73;100445.75;7284200;19;20232;-67
2023/12/24 00:32:25;;;;;;;;;;;;;;;13.22;96.78;100435.63;7312868;19;19933;-67
2023/12/24 00:34:52;;;;;;;;;;;;;;;13.24;96.83;100432.81;7315453;19;19949;-67
2023/12/24 00:37:21;;;;;;;;;;;;;;;13.23;97.10;100423.25;7316649;19;20184;-68
2023/12/24 00:39:48;;;;;;;;;;;;;;;13.25;97.18;100424.72;7293486;19;19919;-68
2023/12/24 00:42:16;;;;;;;;;;;;;;;13.24;97.32;100422.25;7299326;19;19922;-68
2023/12/24 00:44:48;;;;;;;;;;;;;;;13.27;97.05;100403.38;7315107;19;19918;-68
2023/12/24 00:47:18;;;;;;;;;;;;;;;13.26;96.81;100402.56;7285687;19;19959;-68
2023/12/24 00:49:45;;;;;;;;;;;;;;;13.27;97.05;100409.50;7290764;19;21221;-68
2023/12/24 00:52:13;;;;;;;;;;;;;;;13.28;97.11;100408.50;7283959;19;19925;-68
2023/12/24 00:54:41;;;;;;;;;;;;;;;13.31;97.75;100407.28;7296665;19;19919;-68
2023/12/24 00:57:08;;;;;;;;;;;;;;;13.35;97.98;100402.50;7296969;19;20322;-68
2023/12/24 00:59:35;;;;;;;;;;;;;;;13.35;97.35;100405.13;7290150;19;19956;-67
2023/12/24 01:02:02;;;;;;;;;;;;;;;13.34;97.80;100392.91;7288406;19;20821;-69
2023/12/24 01:04:29;;;;;;;;;;;;;;;13.35;98.19;100390.09;7309153;19;22322;-68
2023/12/24 01:06:57;;;;;;;;;;;;;;;13.36;98.78;100396.22;7283098;19;20199;-69
2023/12/24 01:09:23;;;;;;;;;;;;;;;13.38;98.71;100402.13;7285676;19;20569;-68
2023/12/24 01:11:53;;;;;;;;;;;;;;;13.43;99.38;100395.28;7294846;19;19970;-68
2023/12/24 01:14:21;;;;;;;;;;;;;;;13.42;99.69;100395.47;7300485;19;19926;-69
2023/12/24 01:16:48;;;;;;;;;;;;;;;13.42;99.98;100390.16;7302258;19;19915;-68
2023/12/24 01:19:15;;;;;;;;;;;;;;;13.44;100.00;100393.47;7290700;19;19918;-68
2023/12/24 01:21:42;;;;;;;;;;;;;;;13.44;100.00;100391.66;7296615;19;19935;-68
2023/12/24 01:24:09;;;;;;;;;;;;;;;13.43;100.00;100384.72;7299893;19;20901;-67
2023/12/24 01:26:36;;;;;;;;;;;;;;;13.43;100.00;100390.00;7299513;19;19934;-68
2023/12/24 01:29:04;;;;;;;;;;;;;;;13.42;100.00;100392.81;7294997;19;19919;-68
2023/12/24 01:31:30;;;;;;;;;;;;;;;13.40;100.00;100385.09;7309169;19;19918;-67
2023/12/24 01:33:57;;;;;;;;;;;;;;;13.41;100.00;100376.13;7305276;19;20010;-67
2023/12/24 01:36:24;;;;;;;;;;;;;;;13.37;100.00;100371.41;7289659;19;20351;-68
2023/12/24 01:38:51;;;;;;;;;;;;;;;13.34;100.00;100366.50;7299330;19;21153;-68
2023/12/24 01:41:18;;;;;;;;;;;;;;;13.32;100.00;100366.66;7298495;19;19915;-67
2023/12/24 01:43:45;;;;;;;;;;;;;;;13.29;100.00;100364.41;7291457;19;20578;-68
2023/12/24 01:46:13;;;;;;;;;;;;;;;13.29;100.00;100361.75;7298154;19;19923;-68
2023/12/24 01:48:40;;;;;;;;;;;;;;;13.26;100.00;100360.28;7308349;19;19918;-68
2023/12/24 01:51:07;;;;;;;;;;;;;;;13.25;100.00;100357.84;7305695;19;19919;-67
2023/12/24 01:53:34;;;;;;;;;;;;;;;13.27;100.00;100364.56;7305631;19;19929;-68
2023/12/24 01:56:01;;;;;;;;;;;;;;;13.30;100.00;100357.28;7288546;19;20224;-68
2023/12/24 01:58:29;;;;;;;;;;;;;;;13.30;100.00;100350.19;7297217;19;20525;-67
2023/12/24 02:00:56;;;;;;;;;;;;;;;13.33;100.00;100362.19;7292253;19;20356;-69
2023/12/24 02:03:23;;;;;;;;;;;;;;;13.32;100.00;100357.91;7295535;19;22606;-68
2023/12/24 02:05:50;;;;;;;;;;;;;;;13.35;100.00;100350.47;7290363;19;19914;-67
2023/12/24 02:08:18;;;;;;;;;;;;;;;13.37;100.00;100350.25;7283945;19;21758;-67
2023/12/24 02:10:45;;;;;;;;;;;;;;;13.40;100.00;100363.94;7281123;19;19935;-67
2023/12/24 02:13:12;;;;;;;;;;;;;;;13.43;100.00;100353.00;7295588;19;19926;-68
2023/12/24 02:15:39;;;;;;;;;;;;;;;13.46;100.00;100359.75;7313156;19;20246;-67
2023/12/24 02:18:06;;;;;;;;;;;;;;;13.46;100.00;100352.63;7304059;19;19926;-68
2023/12/24 02:20:33;;;;;;;;;;;;;;;13.49;100.00;100362.03;7292018;19;20272;-69
2023/12/24 02:23:00;;;;;;;;;;;;;;;13.45;100.00;100355.47;7287598;19;19962;-68
2023/12/24 02:25:28;;;;;;;;;;;;;;;13.43;100.00;100360.09;7287465;19;19919;-67
2023/12/24 02:28:00;;;;;;;;;;;;;;;13.47;100.00;100348.97;7307996;19;20296;-68
2023/12/24 02:30:32;;;;;;;;;;;;;;;13.46;100.00;100355.25;7284379;19;20372;-67
2023/12/24 02:32:59;;;;;;;;;;;;;;;13.47;100.00;100350.81;7291483;19;19918;-68
2023/12/24 02:35:29;;;;;;;;;;;;;;;13.48;100.00;100347.16;7290565;19;20479;-70
2023/12/24 02:37:56;;;;;;;;;;;;;;;13.49;100.00;100348.81;7301277;19;19927;-68
2023/12/24 02:40:23;;;;;;;;;;;;;;;13.51;100.00;100344.16;7287870;19;19958;-67
2023/12/24 02:42:50;;;;;;;;;;;;;;;13.52;100.00;100345.78;7296028;19;21361;-68
2023/12/24 02:45:17;;;;;;;;;;;;;;;13.52;100.00;100341.31;7298939;19;19918;-68
2023/12/24 02:47:44;;;;;;;;;;;;;;;13.57;100.00;100335.47;7298434;19;20820;-68
2023/12/24 02:50:11;;;;;;;;;;;;;;;13.57;100.00;100324.91;7295097;19;19922;-67
2023/12/24 02:52:38;;;;;;;;;;;;;;;13.61;100.00;100323.56;7291445;19;20004;-69
2023/12/24 02:55:05;;;;;;;;;;;;;;;13.63;100.00;100329.47;7287120;19;19937;-67
2023/12/24 02:57:32;;;;;;;;;;;;;;;13.63;100.00;100324.16;7295921;19;19968;-68
2023/12/24 02:59:59;;;;;;;;;;;;;;;13.67;100.00;100328.91;7286310;19;19922;-67
2023/12/24 03:02:26;;;;;;;;;;;;;;;13.70;100.00;100325.09;7294558;19;20565;-67
2023/12/24 03:04:53;;;;;;;;;;;;;;;13.71;100.00;100327.53;7293115;19;20505;-68
2023/12/24 03:07:19;;;;;;;;;;;;;;;13.73;99.64;100332.63;7281372;19;19934;-67
2023/12/24 03:09:46;;;;;;;;;;;;;;;13.77;99.67;100331.25;7289931;19;19933;-68
2023/12/24 03:12:13;;;;;;;;;;;;;;;13.81;99.48;100321.16;7292815;19;20678;-67
2023/12/24 03:14:43;;;;;;;;;;;;;;;13.81;98.86;100319.31;7288189;19;20034;-69
2023/12/24 03:17:10;;;;;;;;;;;;;;;13.83;99.09;100314.66;7304805;19;19923;-67
2023/12/24 03:19:37;;;;;;;;;;;;;;;13.84;99.37;100305.72;7311914;19;21794;-69
2023/12/24 03:22:04;;;;;;;;;;;;;;;13.87;99.26;100304.50;7289197;19;20476;-67
2023/12/24 03:24:31;;;;;;;;;;;;;;;13.88;99.20;100317.56;7291590;19;19933;-67
2023/12/24 03:26:58;;;;;;;;;;;;;;;13.90;98.98;100302.31;7290718;19;20049;-67
2023/12/24 03:29:24;;;;;;;;;;;;;;;13.90;98.94;100288.28;7291256;19;20324;-68
2023/12/24 03:31:51;;;;;;;;;;;;;;;13.92;99.15;100294.19;7284268;19;20517;-66
2023/12/24 03:34:18;;;;;;;;;;;;;;;13.91;98.59;100287.28;7301422;19;19915;-67
2023/12/24 03:36:45;;;;;;;;;;;;;;;13.95;98.67;100275.31;7291128;19;19915;-67
2023/12/24 03:39:12;;;;;;;;;;;;;;;13.95;98.93;100273.50;7296372;19;19935;-67
2023/12/24 03:41:39;;;;;;;;;;;;;;;13.97;98.60;100282.03;7298221;19;21896;-69
2023/12/24 03:44:06;;;;;;;;;;;;;;;13.98;98.69;100281.03;7297613;19;19914;-68
2023/12/24 03:46:32;;;;;;;;;;;;;;;13.99;98.59;100290.63;7288474;19;19919;-68
2023/12/24 03:48:59;;;;;;;;;;;;;;;14.00;98.60;100292.25;7294959;19;19998;-68
2023/12/24 03:51:26;;;;;;;;;;;;;;;14.00;98.83;100292.25;7295045;19;20732;-68
2023/12/24 03:53:53;;;;;;;;;;;;;;;14.01;98.94;100291.25;7296881;19;19927;-68
2023/12/24 03:56:20;;;;;;;;;;;;;;;14.00;98.88;100292.25;7295277;19;19914;-67
2023/12/24 03:58:49;;;;;;;;;;;;;;;14.01;98.63;100283.31;7292720;19;20333;-67
2023/12/24 04:01:16;;;;;;;;;;;;;;;14.03;98.79;100273.34;7298369;19;19914;-68
2023/12/24 04:03:44;;;;;;;;;;;;;;;14.05;99.00;100276.63;7293833;19;20436;-68
2023/12/24 04:06:16;;;;;;;;;;;;;;;14.07;98.91;100277.25;7286915;19;19915;-68
2023/12/24 04:08:43;;;;;;;;;;;;;;;14.07;98.86;100274.59;7296703;19;20974;-68
2023/12/24 04:11:13;;;;;;;;;;;;;;;14.07;98.88;100261.38;7293028;19;20628;-68
2023/12/24 04:13:40;;;;;;;;;;;;;;;14.09;99.14;100258.56;7295273;19;19919;-67
2023/12/24 04:16:08;;;;;;;;;;;;;;;14.10;99.37;100249.63;7313580;19;19918;-68
2023/12/24 04:18:35;;;;;;;;;;;;;;;14.10;99.17;100253.06;7309879;19;19918;-69
2023/12/24 04:21:02;;;;;;;;;;;;;;;14.11;99.06;100253.91;7299018;19;19915;-68
2023/12/24 04:23:29;;;;;;;;;;;;;;;14.11;98.99;100254.72;7303476;19;20157;-68
2023/12/24 04:25:56;;;;;;;;;;;;;;;14.13;99.19;100262.44;7309010;19;20540;-68
2023/12/24 04:28:23;;;;;;;;;;;;;;;14.13;99.42;100238.63;7307975;19;19974;-68
2023/12/24 04:30:50;;;;;;;;;;;;;;;14.17;99.52;100225.88;7295740;19;20179;-67
2023/12/24 04:33:17;;;;;;;;;;;;;;;14.13;99.37;100234.16;7303893;19;20660;-67
2023/12/24 04:35:46;;;;;;;;;;;;;;;14.12;99.24;100255.50;7295598;19;19919;-67
2023/12/24 04:38:20;;;;;;;;;;;;;;;14.11;99.47;100260.00;7290343;19;21339;-67
2023/12/24 04:40:48;;;;;;;;;;;;;;;14.13;99.35;100243.94;7294781;19;20593;-68
2023/12/24 04:43:15;;;;;;;;;;;;;;;14.14;99.85;100237.63;7300505;19;20250;-67
2023/12/24 04:45:42;;;;;;;;;;;;;;;14.16;99.92;100232.16;7313922;19;20563;-68
2023/12/24 04:48:09;;;;;;;;;;;;;;;14.14;99.81;100211.19;7314292;19;20593;-67
2023/12/24 04:50:35;;;;;;;;;;;;;;;14.12;99.82;100218.47;7299329;19;19923;-67
2023/12/24 04:53:03;;;;;;;;;;;;;;;14.11;99.91;100233.56;7294777;19;19942;-68
2023/12/24 04:55:29;;;;;;;;;;;;;;;14.14;100.00;100227.06;7291761;19;20267;-66
2023/12/24 04:57:56;;;;;;;;;;;;;;;14.13;100.00;100233.34;7299798;19;19998;-68
2023/12/24 05:00:23;;;;;;;;;;;;;;;14.11;100.00;100222.16;7296357;19;20641;-67
2023/12/24 05:02:51;;;;;;;;;;;;;;;14.12;100.00;100214.00;7286484;19;19925;-68
2023/12/24 05:05:18;;;;;;;;;;;;;;;14.14;100.00;100229.69;7300674;19;19942;-68
2023/12/24 05:07:45;;;;;;;;;;;;;;;14.13;99.93;100226.22;7302405;19;21498;-68
2023/12/24 05:10:12;;;;;;;;;;;;;;;14.15;100.00;100231.34;7295312;19;20233;-68
2023/12/24 05:12:39;;;;;;;;;;;;;;;14.14;100.00;100230.53;7292173;19;19918;-67
2023/12/24 05:15:06;;;;;;;;;;;;;;;14.14;100.00;100219.94;7299217;19;19929;-67
2023/12/24 05:17:33;;;;;;;;;;;;;;;14.19;100.00;100207.94;7290793;19;19998;-67
2023/12/24 05:20:00;;;;;;;;;;;;;;;14.20;100.00;100218.34;7306284;19;20986;-67
2023/12/24 05:22:27;;;;;;;;;;;;;;;14.20;100.00;100194.53;7284733;19;20505;-67
2023/12/24 05:24:54;;;;;;;;;;;;;;;14.17;100.00;100212.63;7297986;19;19923;-70
2023/12/24 05:27:21;;;;;;;;;;;;;;;14.18;100.00;100204.47;7291033;19;20252;-67
2023/12/24 05:29:47;;;;;;;;;;;;;;;14.19;100.00;100198.19;7293377;19;19923;-66
2023/12/24 05:32:14;;;;;;;;;;;;;;;14.21;100.00;100203.28;7298248;19;19933;-67
2023/12/24 05:34:49;;;;;;;;;;;;;;;14.22;100.00;100195.16;7300083;19;19919;-68
2023/12/24 05:37:16;;;;;;;;;;;;;;;14.21;100.00;100190.88;7303694;19;20399;-68
2023/12/24 05:39:43;;;;;;;;;;;;;;;14.22;100.00;100202.28;7295735;19;19990;-66
2023/12/24 05:42:10;;;;;;;;;;;;;;;14.23;100.00;100193.31;7290558;19;19918;-68
2023/12/24 05:44:41;;;;;;;;;;;;;;;14.22;100.00;100195.16;7288913;19;19927;-67
2023/12/24 05:47:09;;;;;;;;;;;;;;;14.24;100.00;100205.53;7297134;19;19938;-67
2023/12/24 05:49:39;;;;;;;;;;;;;;;14.26;100.00;100204.38;7298747;19;20588;-69
2023/12/24 05:52:06;;;;;;;;;;;;;;;14.27;100.00;100215.78;7282868;19;19947;-69
2023/12/24 05:54:32;;;;;;;;;;;;;;;14.27;100.00;100207.81;7281486;19;19923;-66
2023/12/24 05:56:59;;;;;;;;;;;;;;;14.28;100.00;100206.78;7292652;19;21501;-67
2023/12/24 05:59:30;;;;;;;;;;;;;;;14.28;100.00;100212.09;7286099;19;19911;-68
2023/12/24 06:01:57;;;;;;;;;;;;;;;14.29;100.00;100213.72;7291265;19;19951;-68
2023/12/24 06:04:24;;;;;;;;;;;;;;;14.28;100.00;100236.72;7310392;19;19934;-67
2023/12/24 06:06:51;;;;;;;;;;;;;;;14.29;100.00;100250.78;7290566;19;22477;-67
2023/12/24 06:09:18;;;;;;;;;;;;;;;14.30;100.00;100229.44;7291898;19;20201;-68
2023/12/24 06:11:45;;;;;;;;;;;;;;;14.31;100.00;100222.31;7292145;19;19935;-68
2023/12/24 06:14:11;;;;;;;;;;;;;;;14.32;100.00;100229.25;7307253;19;19919;-67
2023/12/24 06:16:38;;;;;;;;;;;;;;;14.32;100.00;100226.59;7311994;19;21064;-66
2023/12/24 06:19:05;;;;;;;;;;;;;;;14.34;100.00;100221.91;7293884;19;19929;-68
2023/12/24 06:21:32;;;;;;;;;;;;;;;14.31;100.00;100209.06;7292785;19;19919;-67
2023/12/24 06:23:59;;;;;;;;;;;;;;;14.31;100.00;100206.44;7299932;19;20400;-68
2023/12/24 06:26:26;;;;;;;;;;;;;;;14.30;100.00;100215.38;7285438;19;20691;-66
2023/12/24 06:28:52;;;;;;;;;;;;;;;14.32;100.00;100205.44;7301197;19;19929;-68
2023/12/24 06:31:20;;;;;;;;;;;;;;;14.32;100.00;100221.31;7297111;19;20549;-67
2023/12/24 06:33:47;;;;;;;;;;;;;;;14.32;100.00;100208.91;7286699;19;20366;-68
2023/12/24 06:36:14;;;;;;;;;;;;;;;14.28;100.00;100207.63;7293438;19;20441;-68
2023/12/24 06:38:41;;;;;;;;;;;;;;;14.28;100.00;100220.84;7289274;19;19952;-67
2023/12/24 06:41:08;;;;;;;;;;;;;;;14.30;100.00;100207.44;7292063;19;19946;-67
2023/12/24 06:43:38;;;;;;;;;;;;;;;14.31;100.00;100211.72;7287443;19;20461;-68
2023/12/24 06:46:12;;;;;;;;;;;;;;;14.27;100.00;100203.34;7287512;19;20023;-68
2023/12/24 06:48:39;;;;;;;;;;;;;;;14.26;100.00;100198.25;7288912;19;19926;-68
2023/12/24 06:51:07;;;;;;;;;;;;;;;14.26;100.00;100192.97;7291461;19;19947;-68
2023/12/24 06:53:34;;;;;;;;;;;;;;;14.25;100.00;100199.25;7297136;19;21548;-68
2023/12/24 06:56:01;;;;;;;;;;;;;;;14.25;100.00;100204.53;7305149;19;20328;-67
2023/12/24 06:58:29;;;;;;;;;;;;;;;14.25;100.00;100215.94;7281871;19;20022;-67
2023/12/24 07:00:59;;;;;;;;;;;;;;;14.26;100.00;100216.78;7288087;19;19972;-69
2023/12/24 07:03:26;;;;;;;;;;;;;;;14.25;100.00;100212.47;7294301;19;21316;-67
2023/12/24 07:05:53;;;;;;;;;;;;;;;14.24;100.00;100210.84;7283722;19;20521;-69
2023/12/24 07:08:21;;;;;;;;;;;;;;;14.23;100.00;100196.78;7280136;19;20018;-69
2023/12/24 07:10:48;;;;;;;;;;;;;;;14.18;100.00;100196.53;7294083;19;19914;-67
2023/12/24 07:13:14;;;;;;;;;;;;;;;14.14;100.00;100187.38;7288112;19;19926;-67
2023/12/24 07:15:44;;;;;;;;;;;;;;;14.11;100.00;100196.50;7305882;19;19942;-68
2023/12/24 07:18:11;;;;;;;;;;;;;;;14.12;100.00;100194.66;7304900;19;20086;-68
2023/12/24 07:20:38;;;;;;;;;;;;;;;14.11;100.00;100196.50;7287161;19;20156;-67
2023/12/24 07:23:05;;;;;;;;;;;;;;;14.09;100.00;100192.41;7299598;19;19982;-67
2023/12/24 07:25:32;;;;;;;;;;;;;;;14.10;100.00;100207.28;7303388;19;20562;-68
2023/12/24 07:27:59;;;;;;;;;;;;;;;14.13;100.00;100206.88;7306586;19;19922;-68
2023/12/24 07:30:27;;;;;;;;;;;;;;;14.13;100.00;100196.31;7292826;19;20006;-67
2023/12/24 07:32:53;;;;;;;;;;;;;;;14.13;100.00;100191.84;7304461;19;20554;-67
2023/12/24 07:35:22;;;;;;;;;;;;;;;14.14;100.00;100190.81;7299328;19;19933;-67
2023/12/24 07:37:53;;;;;;;;;;;;;;;14.13;100.00;100191.84;7305704;19;19919;-67
2023/12/24 07:40:20;;;;;;;;;;;;;;;14.14;100.00;100195.31;7289378;19;20470;-67
2023/12/24 07:42:47;;;;;;;;;;;;;;;14.13;100.00;100185.72;7294355;19;21513;-66
2023/12/24 07:45:16;;;;;;;;;;;;;;;14.12;100.00;100179.59;7300383;19;19935;-67
2023/12/24 07:47:47;;;;;;;;;;;;;;;14.15;100.00;100194.28;7288043;19;19929;-67
2023/12/24 07:50:14;;;;;;;;;;;;;;;14.17;100.00;100202.06;7298486;19;19927;-68
2023/12/24 07:52:41;;;;;;;;;;;;;;;14.14;100.00;100193.47;7314295;19;19915;-67
2023/12/24 07:55:10;;;;;;;;;;;;;;;14.16;100.00;100188.00;7304331;19;19925;-68
2023/12/24 07:57:37;;;;;;;;;;;;;;;14.17;100.00;100188.81;7286351;19;20394;-66
2023/12/24 08:00:09;;;;;;;;;;;;;;;14.20;100.00;100185.78;7289727;19;19919;-68
2023/12/24 08:02:36;;;;;;;;;;;;;;;14.19;100.00;100184.13;7298313;19;20279;-67
2023/12/24 08:05:03;;;;;;;;;;;;;;;14.23;100.00;100180.91;7292741;19;22620;-68
2023/12/24 08:07:30;;;;;;;;;;;;;;;14.26;100.00;100177.06;7296490;19;19923;-67
2023/12/24 08:09:57;;;;;;;;;;;;;;;14.27;100.00;100163.66;7314357;19;19915;-67
2023/12/24 08:12:24;;;;;;;;;;;;;;;14.26;100.00;100151.44;7301145;19;20749;-66
2023/12/24 08:14:52;;;;;;;;;;;;;;;14.27;100.00;100145.13;7303984;19;19952;-67
2023/12/24 08:17:20;;;;;;;;;;;;;;;14.30;100.00;100141.28;7295360;19;19923;-67
2023/12/24 08:19:47;;;;;;;;;;;;;;;14.34;100.00;100145.16;7300466;19;19983;-67
2023/12/24 08:22:14;;;;;;;;;;;;;;;14.36;100.00;100143.16;7292087;19;19949;-67
2023/12/24 08:24:41;;;;;;;;;;;;;;;14.38;100.00;100143.78;7310102;19;19915;-66
2023/12/24 08:27:12;;;;;;;;;;;;;;;14.40;100.00;100139.13;7295497;19;19923;-68
2023/12/24 08:29:39;;;;;;;;;;;;;;;14.43;100.00;100144.03;7287184;19;19915;-68
2023/12/24 08:32:06;;;;;;;;;;;;;;;14.44;100.00;100143.00;7286108;19;19926;-67
2023/12/24 08:34:33;;;;;;;;;;;;;;;14.48;100.00;100146.91;7308768;19;20477;-67
2023/12/24 08:37:00;;;;;;;;;;;;;;;14.51;100.00;100151.81;7274573;19;19987;-68
2023/12/24 08:39:27;;;;;;;;;;;;;;;14.50;100.00;100148.34;7289242;19;20243;-67
2023/12/24 08:41:54;;;;;;;;;;;;;;;14.55;100.00;100145.94;7298723;19;21249;-67
2023/12/24 08:44:23;;;;;;;;;;;;;;;14.57;100.00;100135.16;7302867;19;20537;-69
2023/12/24 08:46:50;;;;;;;;;;;;;;;14.59;100.00;100127.81;7300704;19;19918;-67
2023/12/24 08:49:17;;;;;;;;;;;;;;;14.62;100.00;100135.41;7293510;19;19983;-67
2023/12/24 08:51:44;;;;;;;;;;;;;;;14.70;100.00;100150.28;7301768;19;22331;-68
2023/12/24 08:54:11;;;;;;;;;;;;;;;14.68;100.00;100176.16;7294299;19;19911;-68
2023/12/24 08:56:38;;;;;;;;;;;;;;;14.69;100.00;100183.88;7306689;19;19918;-67
2023/12/24 08:59:07;;;;;;;;;;;;;;;14.70;100.00;100160.88;7296483;19;20590;-67
2023/12/24 09:01:34;;;;;;;;;;;;;;;14.71;100.00;100160.69;7288957;19;20255;-68
2023/12/24 09:04:02;;;;;;;;;;;;;;;14.73;100.00;100152.56;7274166;19;20010;-70
2023/12/24 09:06:29;;;;;;;;;;;;;;;14.76;100.00;100149.50;7058400;19;4762174;-68
2023/12/24 09:09:00;;;;;;;;;;;;;;;14.80;100.00;100153.38;7300664;19;19978;-67
2023/12/24 09:11:29;;;;;;;;;;;;;;;14.83;100.00;100145.06;7304642;19;20541;-67
2023/12/24 09:13:56;;;;;;;;;;;;;;;14.86;100.00;100147.31;7306507;19;20860;-68
2023/12/24 09:16:24;;;;;;;;;;;;;;;14.87;100.00;100152.41;7294286;19;19937;-67
2023/12/24 09:18:52;;;;;;;;;;;;;;;14.88;100.00;100155.88;7303673;19;19918;-67
2023/12/24 09:21:20;;;;;;;;;;;;;;;14.91;100.00;100156.31;7292222;19;21773;-68
2023/12/24 09:23:48;;;;;;;;;;;;;;;14.91;100.00;100143.06;7292686;19;19934;-67
2023/12/24 09:26:16;;;;;;;;;;;;;;;14.92;100.00;100142.03;7288948;19;20715;-68
2023/12/24 09:28:46;;;;;;;;;;;;;;;14.93;100.00;100129.63;7295766;19;19931;-69
2023/12/24 09:31:14;;;;;;;;;;;;;;;14.95;100.00;100136.34;7298410;19;20009;-68
2023/12/24 09:33:41;;;;;;;;;;;;;;;14.99;100.00;100132.28;7300039;19;19945;-67
2023/12/24 09:36:09;;;;;;;;;;;;;;;14.99;100.00;100134.91;7295181;19;19918;-67
2023/12/24 09:38:37;;;;;;;;;;;;;;;15.00;100.00;100143.69;7289827;19;22208;-67
2023/12/24 09:41:05;;;;;;;;;;;;;;;15.01;100.00;100150.63;7293786;19;20038;-67
2023/12/24 09:43:33;;;;;;;;;;;;;;;15.01;100.00;100150.63;7298555;19;20501;-67
2023/12/24 09:46:04;;;;;;;;;;;;;;;15.03;100.00;100161.03;7294664;19;20327;-67
2023/12/24 09:48:34;;;;;;;;;;;;;;;15.06;100.00;100160.63;7286498;19;20304;-67
2023/12/24 09:51:06;;;;;;;;;;;;;;;15.09;100.00;100166.34;7296923;19;19941;-67
2023/12/24 09:53:34;;;;;;;;;;;;;;;15.09;100.00;100163.69;7290957;19;20964;-67
2023/12/24 09:56:08;;;;;;;;;;;;;;;15.11;100.00;100161.69;7287665;19;19943;-67
2023/12/24 09:58:40;;;;;;;;;;;;;;;15.09;100.00;100154.94;7289262;19;20341;-68
2023/12/24 10:01:11;;;;;;;;;;;;;;;15.12;100.00;100163.31;7291436;19;20518;-68
2023/12/24 10:03:38;;;;;;;;;;;;;;;15.13;100.00;100164.94;7301034;19;19947;-67
2023/12/24 10:06:07;;;;;;;;;;;;;;;15.15;100.00;100146.19;7300223;19;20067;-67
2023/12/24 10:08:37;;;;;;;;;;;;;;;15.19;100.00;100158.00;7298642;19;19949;-67
2023/12/24 10:11:10;;;;;;;;;;;;;;;15.19;100.00;100156.19;7303717;19;19927;-67
2023/12/24 10:13:37;;;;;;;;;;;;;;;15.22;100.00;100163.75;7274499;19;20385;-67
2023/12/24 10:16:05;;;;;;;;;;;;;;;15.22;100.00;100158.47;7293917;19;20255;-67
2023/12/24 10:18:36;;;;;;;;;;;;;;;15.25;100.00;100154.56;7287275;19;20255;-68
2023/12/24 10:21:07;;;;;;;;;;;;;;;15.26;100.00;100151.72;7289885;19;19919;-68
2023/12/24 10:23:34;;;;;;;;;;;;;;;15.27;100.00;100163.97;7293213;19;19923;-67
2023/12/24 10:26:03;;;;;;;;;;;;;;;15.28;100.00;100170.91;7289720;19;21628;-66
2023/12/24 10:28:34;;;;;;;;;;;;;;;15.27;100.00;100160.50;7296309;19;19927;-67
2023/12/24 10:31:08;;;;;;;;;;;;;;;15.28;100.00;100155.00;7279491;19;19919;-67
2023/12/24 10:33:36;;;;;;;;;;;;;;;15.31;100.00;100145.81;7293232;19;20399;-68
2023/12/24 10:36:04;;;;;;;;;;;;;;;15.31;100.00;100148.47;7292061;19;19951;-67
2023/12/24 10:38:36;;;;;;;;;;;;;;;15.34;100.00;100148.06;7293072;19;20369;-67
2023/12/24 10:41:06;;;;;;;;;;;;;;;15.33;100.00;100143.81;7292152;19;20098;-68
2023/12/24 10:43:33;;;;;;;;;;;;;;;15.34;100.00;100124.22;7289379;19;20328;-67
2023/12/24 10:46:02;;;;;;;;;;;;;;;15.33;99.85;100125.25;7289404;19;20577;-67
2023/12/24 10:48:35;;;;;;;;;;;;;;;15.36;100.00;100119.53;7301900;19;19923;-67
2023/12/24 10:51:04;;;;;;;;;;;;;;;15.39;100.00;100116.47;7298086;19;19929;-68
2023/12/24 10:53:31;;;;;;;;;;;;;;;15.40;100.00;100103.03;7284736;19;19915;-67
2023/12/24 10:56:06;;;;;;;;;;;;;;;15.45;99.74;100101.59;7290458;19;20394;-67
2023/12/24 10:58:47;;;;;;;;;;;;;;;15.46;99.77;100096.09;7280115;19;20002;-67
2023/12/24 11:01:19;;;;;;;;;;;;;;;15.47;99.32;100097.72;7297732;19;19914;-68
2023/12/24 11:03:51;;;;;;;;;;;;;;;15.52;98.95;100097.97;7304879;19;19926;-68
2023/12/24 11:06:37;;;;;;;;;;;;;;;15.53;98.84;100112.03;7279222;19;21021;-67
2023/12/24 11:09:24;;;;;;;;;;;;;;;15.55;98.85;100108.16;7288663;19;20490;-68
2023/12/24 11:11:51;;;;;;;;;;;;;;;15.56;98.35;100107.16;7281840;19;19929;-67
2023/12/24 11:14:54;;;;;;;;;;;;;;;15.55;98.16;100113.47;7287948;19;20271;-68
2023/12/24 11:17:38;;;;;;;;;;;;;;;15.57;98.86;100106.13;7292227;19;20432;-68
2023/12/24 11:20:19;;;;;;;;;;;;;;;15.60;97.87;100104.91;7285875;19;20038;-68
2023/12/24 11:23:04;;;;;;;;;;;;;;;15.58;97.97;100099.00;7294855;19;19940;-67
2023/12/24 11:25:36;;;;;;;;;;;;;;;15.59;97.84;100109.41;7300441;19;21532;-68
2023/12/24 11:28:05;;;;;;;;;;;;;;;15.60;97.82;100094.28;7296596;19;20778;-67
2023/12/24 11:30:56;;;;;;;;;;;;;;;15.61;97.48;100104.69;7282251;19;19949;-67
2023/12/24 11:33:29;;;;;;;;;;;;;;;15.64;97.51;100108.81;7305587;19;20022;-67
2023/12/24 11:36:00;;;;;;;;;;;;;;;15.63;97.60;100101.84;7291435;19;20503;-68
2023/12/24 11:38:39;;;;;;;;;;;;;;;15.67;97.64;100109.19;7277109;19;20002;-68
2023/12/24 11:41:08;;;;;;;;;;;;;;;15.67;97.10;100087.97;7293954;19;20260;-68
2023/12/24 11:43:37;;;;;;;;;;;;;;;15.69;96.88;100077.19;7278569;19;20166;-66
2023/12/24 11:46:06;;;;;;;;;;;;;;;15.69;97.03;100088.59;7270670;19;19914;-67
2023/12/24 11:48:37;;;;;;;;;;;;;;;15.70;97.09;100082.25;7289522;19;19922;-68
2023/12/24 11:51:07;;;;;;;;;;;;;;;15.69;96.45;100059.44;7298452;19;19974;-68
2023/12/24 11:53:36;;;;;;;;;;;;;;;15.71;96.65;100059.19;7283522;19;19991;-67
2023/12/24 11:56:07;;;;;;;;;;;;;;;15.74;96.18;100058.81;7300858;19;20188;-67
2023/12/24 11:58:37;;;;;;;;;;;;;;;15.81;96.27;100059.59;7300216;19;19927;-67
2023/12/24 12:01:06;;;;;;;;;;;;;;;15.84;95.64;100064.50;7299391;19;20266;-67
2023/12/24 12:03:35;;;;;;;;;;;;;;;15.86;94.76;100053.69;7310460;19;19925;-67
2023/12/24 12:06:08;;;;;;;;;;;;;;;15.87;94.69;100044.69;7293680;19;19938;-68
2023/12/24 12:08:41;;;;;;;;;;;;;;;15.88;95.20;100052.47;7308583;19;19919;-68
2023/12/24 12:11:13;;;;;;;;;;;;;;;15.89;94.29;100046.13;7300183;19;19922;-67
2023/12/24 12:13:40;;;;;;;;;;;;;;;15.91;94.40;100048.56;7301081;19;19929;-67
2023/12/24 12:16:09;;;;;;;;;;;;;;;15.91;94.25;100061.84;7299035;19;19944;-67
2023/12/24 12:18:41;;;;;;;;;;;;;;;15.93;94.38;100039.38;7294583;19;20169;-68
2023/12/24 12:21:10;;;;;;;;;;;;;;;15.94;93.94;100049.00;7294611;19;20029;-67
2023/12/24 12:23:40;;;;;;;;;;;;;;;15.96;93.66;100052.22;7300987;19;19994;-68
2023/12/24 12:26:09;;;;;;;;;;;;;;;15.96;93.18;100046.09;7290949;19;20171;-67
2023/12/24 12:28:45;;;;;;;;;;;;;;;15.99;93.56;100051.03;7306276;19;19941;-68
2023/12/24 12:31:14;;;;;;;;;;;;;;;16.00;93.71;100064.06;7305012;19;20005;-67
2023/12/24 12:33:41;;;;;;;;;;;;;;;16.01;93.13;100041.81;7294260;19;20006;-67
2023/12/24 12:36:13;;;;;;;;;;;;;;;16.02;92.84;100043.44;7295298;19;20355;-67